createdAt,value
2022-12-18T00:01:39.950Z,79.73
2022-12-18T00:04:14.376Z,79.99
2022-12-18T00:06:41.631Z,78.65
2022-12-18T00:09:09.814Z,78.51
2022-12-18T00:11:36.615Z,79.33
2022-12-18T00:14:03.477Z,78.02
2022-12-18T00:16:31.997Z,77.32
2022-12-18T00:19:00.098Z,77.53
2022-12-18T00:21:28.459Z,77.69
2022-12-18T00:23:55.748Z,77.84
2022-12-18T00:26:27.860Z,77.28
2022-12-18T00:29:05.688Z,77.20
2022-12-18T00:31:33.244Z,77.51
2022-12-18T00:34:02.057Z,77.72
2022-12-18T00:36:35.101Z,77.55
2022-12-18T00:39:04.901Z,77.40
2022-12-18T00:41:51.227Z,77.84
2022-12-18T00:44:19.189Z,76.98
2022-12-18T00:46:47.354Z,77.74
2022-12-18T00:49:15.123Z,77.56
2022-12-18T00:51:42.450Z,77.18
2022-12-18T00:54:10.121Z,77.20
2022-12-18T00:56:45.694Z,77.66
2022-12-18T00:59:16.358Z,77.36
2022-12-18T01:01:43.814Z,78.15
2022-12-18T01:04:10.778Z,78.29
2022-12-18T01:06:37.895Z,78.31
2022-12-18T01:09:04.878Z,77.95
2022-12-18T01:11:32.089Z,78.17
2022-12-18T01:14:01.757Z,78.52
2022-12-18T01:16:28.854Z,78.50
2022-12-18T01:18:57.326Z,77.34
2022-12-18T01:21:25.210Z,78.41
2022-12-18T01:23:54.489Z,78.74
2022-12-18T01:26:21.569Z,78.13
2022-12-18T01:28:48.712Z,78.56
2022-12-18T01:31:27.582Z,79.22
2022-12-18T01:33:56.153Z,77.87
2022-12-18T01:36:26.274Z,77.92
2022-12-18T01:38:54.272Z,77.88
2022-12-18T01:41:26.750Z,77.84
2022-12-18T01:43:58.499Z,78.22
2022-12-18T01:46:27.518Z,77.30
2022-12-18T01:49:02.335Z,77.55
2022-12-18T01:51:30.958Z,78.05
2022-12-18T01:54:00.530Z,77.85
2022-12-18T01:56:27.718Z,77.91
2022-12-18T01:59:03.879Z,77.92
2022-12-18T02:01:32.112Z,77.82
2022-12-18T02:04:24.968Z,78.17
2022-12-18T02:07:04.106Z,77.97
2022-12-18T02:10:03.518Z,77.52
2022-12-18T02:12:58.419Z,77.71
2022-12-18T02:15:35.546Z,77.80
2022-12-18T02:18:18.222Z,78.47
2022-12-18T02:21:13.639Z,78.51
2022-12-18T02:23:59.702Z,78.61
2022-12-18T02:26:39.145Z,78.96
2022-12-18T02:29:13.001Z,78.21
2022-12-18T02:32:01.081Z,78.65
2022-12-18T02:34:32.523Z,79.16
2022-12-18T02:37:03.247Z,77.75
2022-12-18T02:39:34.019Z,78.06
2022-12-18T02:42:08.930Z,77.74
2022-12-18T02:44:44.517Z,77.72
2022-12-18T02:47:14.601Z,77.74
2022-12-18T02:49:59.847Z,78.02
2022-12-18T02:52:50.947Z,76.83
2022-12-18T02:55:45.844Z,78.17
2022-12-18T02:58:49.032Z,78.08
2022-12-18T03:01:38.333Z,79.28
2022-12-18T03:04:18.491Z,79.19
2022-12-18T03:06:50.051Z,79.70
2022-12-18T03:09:32.324Z,79.20
2022-12-18T03:27:02.071Z,82.25
2022-12-18T03:29:36.579Z,81.21
2022-12-18T03:32:10.858Z,80.61
2022-12-18T03:34:41.610Z,79.91
2022-12-18T03:37:11.042Z,79.96
2022-12-18T03:39:38.840Z,80.16
2022-12-18T03:42:15.745Z,80.09
2022-12-18T03:45:17.106Z,80.44
2022-12-18T03:48:05.120Z,79.59
2022-12-18T03:50:58.447Z,79.21
2022-12-18T03:53:55.088Z,78.33
2022-12-18T03:56:31.050Z,78.28
2022-12-18T03:59:02.220Z,77.06
2022-12-18T04:01:35.203Z,76.53
2022-12-18T04:04:03.838Z,76.14
2022-12-18T04:06:35.759Z,75.42
2022-12-18T04:09:03.077Z,74.80
2022-12-18T04:11:32.379Z,74.69
2022-12-18T04:14:07.081Z,73.91
2022-12-18T04:16:34.906Z,74.30
2022-12-18T04:19:04.720Z,73.02
2022-12-18T04:21:38.022Z,73.94
2022-12-18T04:24:06.019Z,73.81
2022-12-18T04:26:35.453Z,74.43
2022-12-18T04:29:15.954Z,73.94
2022-12-18T04:31:43.249Z,74.12
2022-12-18T04:34:10.281Z,73.45
2022-12-18T04:36:43.170Z,74.03
2022-12-18T04:39:10.091Z,72.46
2022-12-18T04:41:37.113Z,72.75
2022-12-18T04:44:05.493Z,73.16
2022-12-18T04:46:32.370Z,72.64
2022-12-18T04:48:59.198Z,72.81
2022-12-18T04:51:26.820Z,71.96
2022-12-18T04:53:54.804Z,72.03
2022-12-18T04:56:22.276Z,71.71
2022-12-18T04:58:49.248Z,72.00
2022-12-18T05:01:18.244Z,71.76
2022-12-18T05:03:45.495Z,71.53
2022-12-18T05:06:12.552Z,72.01
2022-12-18T05:08:39.587Z,72.05
2022-12-18T05:11:10.014Z,71.89
2022-12-18T05:13:39.245Z,72.50
2022-12-18T05:16:06.953Z,73.11
2022-12-18T05:18:33.809Z,74.26
2022-12-18T05:21:00.756Z,74.89
2022-12-18T05:23:28.230Z,74.67
2022-12-18T05:26:03.082Z,75.68
2022-12-18T05:28:32.552Z,75.08
2022-12-18T05:31:01.567Z,74.95
2022-12-18T05:33:32.035Z,75.04
2022-12-18T05:36:00.891Z,75.48
2022-12-18T05:38:28.487Z,75.98
2022-12-18T05:40:55.666Z,76.00
2022-12-18T05:43:23.545Z,75.91
2022-12-18T05:45:51.244Z,75.41
2022-12-18T05:48:18.105Z,75.54
2022-12-18T05:50:46.606Z,75.42
2022-12-18T05:53:14.402Z,74.77
2022-12-18T05:55:43.354Z,74.40
2022-12-18T05:58:11.686Z,74.60
2022-12-18T06:00:43.271Z,71.92
2022-12-18T06:03:11.829Z,73.53
2022-12-18T06:05:42.440Z,73.92
2022-12-18T06:08:10.039Z,74.25
2022-12-18T06:10:37.457Z,73.58
2022-12-18T06:13:04.459Z,73.85
2022-12-18T06:15:31.333Z,74.58
2022-12-18T06:17:58.151Z,74.64
2022-12-18T06:20:29.099Z,74.36
2022-12-18T06:22:58.917Z,74.77
2022-12-18T06:25:25.727Z,74.36
2022-12-18T06:27:52.557Z,73.99
2022-12-18T06:30:19.638Z,74.35
2022-12-18T06:32:49.466Z,75.34
2022-12-18T06:35:18.633Z,75.96
2022-12-18T06:37:47.945Z,74.98
2022-12-18T06:40:14.798Z,75.77
2022-12-18T06:42:41.641Z,75.57
2022-12-18T06:45:09.090Z,75.29
2022-12-18T06:47:35.918Z,76.11
2022-12-18T06:50:02.982Z,75.65
2022-12-18T06:52:29.829Z,75.48
2022-12-18T06:54:56.692Z,75.88
2022-12-18T06:57:23.428Z,76.29
2022-12-18T06:59:50.513Z,76.74
2022-12-18T07:02:17.610Z,76.25
2022-12-18T07:04:44.557Z,75.35
2022-12-18T07:07:11.347Z,75.46
2022-12-18T07:09:38.140Z,74.52
2022-12-18T07:12:06.200Z,75.24
2022-12-18T07:14:33.090Z,73.41
2022-12-18T07:17:00.037Z,74.18
2022-12-18T07:19:26.999Z,74.78
2022-12-18T07:21:53.948Z,74.45
2022-12-18T07:24:20.773Z,75.24
2022-12-18T07:26:47.993Z,74.94
2022-12-18T07:29:14.999Z,75.06
2022-12-18T07:31:42.007Z,74.84
2022-12-18T07:34:13.873Z,74.24
2022-12-18T07:36:41.275Z,75.05
2022-12-18T07:39:08.543Z,75.02
2022-12-18T07:41:35.403Z,73.63
2022-12-18T07:44:12.409Z,73.00
2022-12-18T07:46:39.710Z,73.94
2022-12-18T07:49:06.695Z,74.20
2022-12-18T07:51:33.698Z,74.01
2022-12-18T07:54:00.518Z,74.07
2022-12-18T07:56:29.096Z,73.71
2022-12-18T07:58:57.133Z,73.62
2022-12-18T08:01:24.172Z,72.54
2022-12-18T08:03:52.125Z,72.58
2022-12-18T08:06:19.693Z,72.11
2022-12-18T08:08:52.625Z,72.74
2022-12-18T08:11:19.395Z,72.61
2022-12-18T08:13:46.607Z,72.07
2022-12-18T08:16:13.581Z,72.66
2022-12-18T08:18:40.602Z,72.88
2022-12-18T08:21:16.650Z,72.78
2022-12-18T08:23:44.208Z,73.29
2022-12-18T08:26:14.870Z,74.16
2022-12-18T08:28:42.409Z,73.72
2022-12-18T08:31:10.309Z,74.15
2022-12-18T08:33:38.927Z,74.70
2022-12-18T08:36:06.936Z,74.40
2022-12-18T08:38:34.281Z,74.25
2022-12-18T08:41:03.536Z,75.31
2022-12-18T08:43:49.426Z,75.56
2022-12-18T08:46:16.268Z,75.43
2022-12-18T08:48:43.174Z,75.41
2022-12-18T08:51:10.740Z,74.44
2022-12-18T08:53:38.617Z,74.66
2022-12-18T08:56:06.701Z,75.68
2022-12-18T08:58:33.514Z,75.82
2022-12-18T09:01:04.925Z,76.07
2022-12-18T09:03:32.619Z,76.02
2022-12-18T09:06:00.576Z,75.37
2022-12-18T09:08:27.827Z,75.05
2022-12-18T09:10:54.799Z,75.01
2022-12-18T09:13:22.094Z,74.89
2022-12-18T09:15:54.428Z,75.35
2022-12-18T09:18:24.001Z,74.53
2022-12-18T09:20:54.104Z,74.80
2022-12-18T09:23:22.023Z,75.56
2022-12-18T09:25:49.416Z,76.50
2022-12-18T09:28:19.265Z,78.80
2022-12-18T09:30:49.724Z,79.31
2022-12-18T09:33:17.662Z,79.49
2022-12-18T09:35:46.157Z,80.62
2022-12-18T09:38:15.986Z,79.66
2022-12-18T09:40:50.969Z,78.87
2022-12-18T09:43:45.393Z,79.26
2022-12-18T09:46:20.797Z,79.77
2022-12-18T09:48:51.158Z,77.74
2022-12-18T09:51:23.872Z,76.72
2022-12-18T09:54:00.147Z,77.01
2022-12-18T09:56:30.482Z,76.91
2022-12-18T09:59:00.651Z,77.57
2022-12-18T10:01:36.333Z,76.05
2022-12-18T10:04:10.662Z,77.13
2022-12-18T10:06:52.697Z,77.97
2022-12-18T10:09:37.459Z,75.97
2022-12-18T10:12:19.790Z,77.14
2022-12-18T10:15:05.772Z,76.85
2022-12-18T10:17:41.603Z,76.02
2022-12-18T10:20:28.383Z,79.12
2022-12-18T10:23:04.287Z,75.85
2022-12-18T10:26:03.092Z,76.93
2022-12-18T10:28:32.327Z,74.99
2022-12-18T10:30:59.850Z,75.12
2022-12-18T10:33:30.990Z,77.13
2022-12-18T10:35:57.865Z,76.36
2022-12-18T10:38:28.907Z,74.66
2022-12-18T10:41:01.930Z,76.00
2022-12-18T10:43:37.280Z,74.53
2022-12-18T10:46:09.930Z,74.73
2022-12-18T10:48:40.409Z,74.73
2022-12-18T10:51:12.928Z,73.21
2022-12-18T10:53:42.975Z,71.95
2022-12-18T10:56:10.090Z,70.20
2022-12-18T10:58:39.682Z,64.49
2022-12-18T11:01:16.780Z,62.80
2022-12-18T11:04:02.489Z,62.14
2022-12-18T11:06:30.749Z,63.45
2022-12-18T11:09:12.336Z,65.05
2022-12-18T11:11:41.392Z,67.53
2022-12-18T11:14:19.387Z,67.09
2022-12-18T11:17:24.430Z,68.52
2022-12-18T11:19:39.859Z,70.04
2022-12-18T11:22:27.614Z,70.19
2022-12-18T11:28:36.962Z,72.49
2022-12-18T11:31:18.190Z,73.70
2022-12-18T11:34:26.959Z,73.63
2022-12-18T11:36:49.195Z,75.54
2022-12-18T11:39:24.279Z,75.48
2022-12-18T11:42:09.921Z,75.62
2022-12-18T11:44:48.045Z,76.06
2022-12-18T11:47:32.055Z,76.10
2022-12-18T11:50:03.124Z,75.33
2022-12-18T11:52:41.848Z,75.15
2022-12-18T11:55:33.437Z,76.35
2022-12-18T11:58:15.400Z,76.28
2022-12-18T12:00:53.426Z,76.10
2022-12-18T12:03:41.324Z,75.41
2022-12-18T12:06:19.897Z,74.26
2022-12-18T12:09:16.131Z,74.31
2022-12-18T12:12:12.503Z,74.16
2022-12-18T12:15:02.399Z,74.75
2022-12-18T12:18:11.306Z,74.26
2022-12-18T12:20:52.666Z,72.71
2022-12-18T12:23:27.790Z,73.88
2022-12-18T12:26:12.593Z,73.76
2022-12-18T12:29:01.202Z,73.74
2022-12-18T12:31:59.726Z,74.31
2022-12-18T12:35:00.960Z,74.65
2022-12-18T12:38:07.205Z,74.75
2022-12-18T12:41:02.429Z,74.25
2022-12-18T12:43:46.139Z,74.67
2022-12-18T12:46:20.639Z,74.17
2022-12-18T12:48:59.265Z,73.21
2022-12-18T12:51:29.905Z,70.41
2022-12-18T12:53:59.269Z,68.93
2022-12-18T12:56:36.151Z,68.08
2022-12-18T12:59:16.764Z,68.02
2022-12-18T13:01:55.731Z,68.69
2022-12-18T13:04:38.231Z,68.55
2022-12-18T13:07:08.116Z,68.76
2022-12-18T13:09:36.709Z,69.15
2022-12-18T13:12:33.272Z,70.00
2022-12-18T13:15:24.021Z,66.98
2022-12-18T13:18:13.250Z,64.30
2022-12-18T13:23:37.647Z,63.86
2022-12-18T13:26:07.415Z,63.24
2022-12-18T13:28:34.566Z,63.31
2022-12-18T13:31:03.690Z,63.09
2022-12-18T13:33:30.427Z,63.93
2022-12-18T13:36:03.341Z,63.55
2022-12-18T13:38:33.173Z,63.29
2022-12-18T13:41:02.031Z,63.52
2022-12-18T13:43:37.912Z,64.15
2022-12-18T13:46:23.462Z,65.07
2022-12-18T13:49:13.621Z,66.16
2022-12-18T13:51:54.724Z,64.38
2022-12-18T13:54:35.784Z,63.57
2022-12-18T13:57:04.559Z,64.58
2022-12-18T13:59:36.378Z,64.50
2022-12-18T14:02:23.687Z,64.63
2022-12-18T14:04:52.788Z,65.15
2022-12-18T14:07:31.438Z,64.77
2022-12-18T14:10:33.848Z,64.25
2022-12-18T14:12:59.140Z,63.91
2022-12-18T14:15:28.110Z,65.33
2022-12-18T14:18:26.510Z,64.76
2022-12-18T14:20:58.764Z,64.72
2022-12-18T14:23:38.454Z,65.69
2022-12-18T14:26:31.076Z,65.48
2022-12-18T14:29:02.183Z,66.03
2022-12-18T14:31:31.707Z,67.77
2022-12-18T14:33:58.714Z,67.98
2022-12-18T14:36:30.070Z,69.13
2022-12-18T14:39:00.220Z,69.90
2022-12-18T14:41:27.714Z,69.66
2022-12-18T14:43:55.721Z,70.21
2022-12-18T14:46:28.622Z,69.76
2022-12-18T14:48:56.555Z,69.15
2022-12-18T14:51:28.223Z,69.33
2022-12-18T14:53:58.696Z,69.70
2022-12-18T14:56:50.836Z,69.39
2022-12-18T14:59:25.038Z,69.83
2022-12-18T15:02:01.362Z,69.76
2022-12-18T15:04:34.949Z,68.42
2022-12-18T15:07:18.079Z,66.98
2022-12-18T15:10:04.788Z,65.75
2022-12-18T15:12:37.598Z,65.53
2022-12-18T15:28:52.415Z,69.00
2022-12-18T15:31:24.440Z,69.12
2022-12-18T15:33:53.278Z,69.69
2022-12-18T15:36:26.413Z,70.25
2022-12-18T15:38:56.210Z,70.71
2022-12-18T15:41:36.334Z,69.44
2022-12-18T15:44:04.377Z,69.44
2022-12-18T15:46:32.079Z,70.42
2022-12-18T15:49:02.683Z,70.37
2022-12-18T15:51:39.638Z,70.61
2022-12-18T15:54:13.027Z,70.00
2022-12-18T15:56:58.389Z,69.22
2022-12-18T15:59:25.526Z,68.31
2022-12-18T16:01:54.167Z,68.62
2022-12-18T16:04:22.852Z,69.60
2022-12-18T16:09:38.200Z,68.28
2022-12-18T16:12:07.244Z,69.22
2022-12-18T16:14:35.136Z,69.46
2022-12-18T16:17:10.019Z,69.60
2022-12-18T16:19:36.907Z,69.54
2022-12-18T16:22:03.728Z,70.77
2022-12-18T16:24:37.123Z,71.42
2022-12-18T16:27:04.607Z,71.58
2022-12-18T16:29:31.444Z,71.65
2022-12-18T16:32:00.153Z,71.97
2022-12-18T16:34:32.876Z,70.47
2022-12-18T16:37:08.021Z,70.41
2022-12-18T16:39:36.051Z,71.26
2022-12-18T16:42:20.804Z,70.60
2022-12-18T16:44:49.336Z,70.37
2022-12-18T16:47:17.221Z,70.17
2022-12-18T16:49:47.497Z,70.57
2022-12-18T16:52:15.357Z,70.62
2022-12-18T16:54:42.221Z,70.59
2022-12-18T16:57:13.041Z,70.17
2022-12-18T16:59:40.411Z,67.77
2022-12-18T17:02:13.285Z,66.89
2022-12-18T17:04:40.335Z,65.76
2022-12-18T17:07:07.168Z,65.71
2022-12-18T17:09:34.285Z,65.07
2022-12-18T17:12:04.203Z,64.84
2022-12-18T17:14:33.431Z,65.06
2022-12-18T17:19:50.233Z,65.85
2022-12-18T17:22:17.248Z,65.55
2022-12-18T17:24:44.381Z,64.49
2022-12-18T17:27:11.285Z,64.81
2022-12-18T17:29:41.281Z,64.31
2022-12-18T17:32:13.594Z,65.33
2022-12-18T17:34:40.937Z,64.72
2022-12-18T17:37:08.304Z,64.84
2022-12-18T17:39:37.789Z,64.04
2022-12-18T17:42:05.223Z,63.83
2022-12-18T17:44:34.891Z,63.94
2022-12-18T17:47:02.518Z,64.38
2022-12-18T17:49:29.952Z,65.18
2022-12-18T17:51:56.827Z,65.71
2022-12-18T17:54:24.234Z,67.49
2022-12-18T17:56:51.273Z,67.02
2022-12-18T17:59:18.771Z,67.18
2022-12-18T18:01:45.973Z,67.63
2022-12-18T18:04:13.457Z,67.29
2022-12-18T18:06:41.032Z,67.28
2022-12-18T18:09:15.139Z,66.82
2022-12-18T18:12:03.165Z,66.71
2022-12-18T18:14:30.323Z,66.38
2022-12-18T18:16:58.209Z,66.43
2022-12-18T18:19:31.996Z,67.03
2022-12-18T18:21:58.851Z,66.94
2022-12-18T18:24:26.063Z,66.22
2022-12-18T18:26:53.376Z,66.49
2022-12-18T18:29:23.240Z,66.24
2022-12-18T18:31:50.383Z,65.85
2022-12-18T18:34:20.654Z,65.79
2022-12-18T18:36:47.764Z,63.22
2022-12-18T18:39:15.013Z,63.38
2022-12-18T18:41:43.264Z,63.70
2022-12-18T18:44:15.904Z,64.48
2022-12-18T18:46:42.812Z,64.92
2022-12-18T18:49:10.225Z,66.11
2022-12-18T18:51:37.088Z,66.67
2022-12-18T18:54:04.137Z,67.77
2022-12-18T18:59:19.334Z,69.42
2022-12-18T19:01:50.461Z,70.17
2022-12-18T19:04:17.519Z,71.16
2022-12-18T19:06:46.704Z,70.98
2022-12-18T19:09:14.189Z,71.30
2022-12-18T19:11:59.587Z,70.84
2022-12-18T19:14:26.543Z,70.91
2022-12-18T19:16:54.272Z,71.54
2022-12-18T19:19:22.010Z,71.36
2022-12-18T19:21:50.223Z,71.17
2022-12-18T19:24:17.076Z,70.68
2022-12-18T19:26:43.992Z,71.58
2022-12-18T19:29:12.130Z,71.16
2022-12-18T19:31:40.413Z,71.51
2022-12-18T19:34:07.940Z,71.69
2022-12-18T19:36:38.118Z,71.54
2022-12-18T19:39:13.714Z,70.77
2022-12-18T19:41:41.356Z,70.10
2022-12-18T19:44:10.083Z,69.71
2022-12-18T19:46:40.586Z,69.64
2022-12-18T19:49:11.148Z,69.21
2022-12-18T19:51:38.626Z,68.73
2022-12-18T19:54:05.864Z,68.63
2022-12-18T19:56:35.037Z,68.63
2022-12-18T19:59:03.846Z,68.39
2022-12-18T20:01:31.093Z,68.72
2022-12-18T20:03:59.036Z,68.84
2022-12-18T20:06:33.019Z,68.51
2022-12-18T20:09:03.853Z,67.92
2022-12-18T20:11:31.022Z,67.48
2022-12-18T20:13:58.653Z,67.13
2022-12-18T20:16:25.624Z,67.62
2022-12-18T20:18:52.592Z,68.06
2022-12-18T20:21:19.741Z,67.65
2022-12-18T20:23:46.618Z,67.84
2022-12-18T20:26:14.143Z,67.99
2022-12-18T20:28:41.078Z,67.95
2022-12-18T20:31:10.582Z,67.86
2022-12-18T20:33:42.002Z,67.65
2022-12-18T20:36:14.336Z,67.48
2022-12-18T20:38:42.695Z,67.82
2022-12-18T20:41:17.799Z,67.68
2022-12-18T20:43:45.425Z,68.23
2022-12-18T20:46:14.968Z,68.00
2022-12-18T20:48:43.462Z,68.01
2022-12-18T20:51:17.572Z,67.45
2022-12-18T20:53:45.464Z,67.10
2022-12-18T20:56:20.828Z,67.22
2022-12-18T20:58:49.981Z,68.14
2022-12-18T21:01:19.973Z,67.49
2022-12-18T21:03:47.813Z,67.89
2022-12-18T21:06:16.871Z,67.78
2022-12-18T21:08:44.345Z,67.72
2022-12-18T21:11:46.676Z,67.11
2022-12-18T21:14:19.447Z,67.42
2022-12-18T21:16:46.885Z,66.50
2022-12-18T21:19:17.861Z,67.27
2022-12-18T21:21:45.848Z,67.55
2022-12-18T21:24:13.363Z,67.20
2022-12-18T21:26:45.876Z,67.43
2022-12-18T21:29:23.417Z,66.83
2022-12-18T21:31:51.382Z,66.91
2022-12-18T21:34:23.202Z,67.48
2022-12-18T21:36:50.170Z,67.95
2022-12-18T21:39:17.778Z,66.99
2022-12-18T21:42:05.661Z,67.18
2022-12-18T21:44:33.967Z,66.32
2022-12-18T21:47:21.963Z,66.78
2022-12-18T21:49:51.988Z,67.39
2022-12-18T21:52:19.519Z,68.38
2022-12-18T21:54:48.403Z,67.58
2022-12-18T21:57:15.276Z,67.82
2022-12-18T21:59:43.741Z,66.99
2022-12-18T22:02:18.947Z,67.09
2022-12-18T22:04:47.124Z,66.71
2022-12-18T22:07:16.453Z,67.64
2022-12-18T22:09:43.816Z,67.48
2022-12-18T22:12:13.399Z,67.14
2022-12-18T22:14:40.227Z,68.05
2022-12-18T22:17:07.198Z,68.53
2022-12-18T22:19:42.696Z,68.96
2022-12-18T22:22:09.920Z,68.96
2022-12-18T22:24:36.807Z,69.21
2022-12-18T22:27:04.400Z,70.11
2022-12-18T22:29:50.578Z,70.37
2022-12-18T22:32:22.235Z,70.54
2022-12-18T22:35:04.934Z,70.96
2022-12-18T22:37:34.198Z,70.58
2022-12-18T22:40:03.188Z,71.59
2022-12-18T22:42:31.161Z,71.08
2022-12-18T22:44:57.999Z,70.45
2022-12-18T22:47:29.440Z,71.04
2022-12-18T22:49:57.529Z,71.54
2022-12-18T22:52:24.988Z,71.83
2022-12-18T22:54:53.275Z,71.49
2022-12-18T22:57:24.326Z,71.70
2022-12-18T22:59:51.546Z,72.61
2022-12-18T23:02:19.324Z,71.70
2022-12-18T23:04:47.744Z,72.02
2022-12-18T23:07:15.597Z,73.28
2022-12-18T23:09:42.952Z,73.10
2022-12-18T23:12:17.090Z,73.85
2022-12-18T23:14:44.082Z,73.20
2022-12-18T23:17:11.176Z,73.57
2022-12-18T23:19:38.049Z,73.65
2022-12-18T23:22:10.011Z,73.29
2022-12-18T23:24:38.392Z,73.57
2022-12-18T23:27:06.516Z,73.92
2022-12-18T23:29:38.383Z,73.35
2022-12-18T23:32:05.244Z,72.97
2022-12-18T23:34:32.122Z,72.61
2022-12-18T23:36:58.988Z,72.45
2022-12-18T23:39:29.850Z,73.99
2022-12-18T23:42:00.594Z,73.94
2022-12-18T23:44:27.830Z,73.88
2022-12-18T23:46:55.464Z,73.24
2022-12-18T23:49:22.695Z,73.50
2022-12-18T23:51:49.622Z,73.52
2022-12-18T23:54:16.533Z,73.19
2022-12-18T23:56:43.355Z,73.78
2022-12-18T23:59:10.398Z,74.82
